Time;durP1;ratioP1;P1;durP2;ratioP2;P2;SDS_P1;SDS_P2;PMS_P1;PMS_P2;Temp;Humidity;BMP_temperature;BMP_pressure;BME280_temperature;BME280_humidity;BME280_pressure;Samples;Min_cycle;Max_cycle;Signal;HPM_P1;HPM_P2
2023/07/13 00:01:46;;;;;;;10.48;2.50;;;;;;;16.96;88.08;155676.13;4916088;29;20064;-74
2023/07/13 00:04:12;;;;;;;13.63;2.38;;;;;;;16.97;88.12;155677.44;4916600;29;20032;-74
2023/07/13 00:06:37;;;;;;;17.43;2.90;;;;;;;16.96;88.39;155674.84;4914252;29;20024;-74
2023/07/13 00:09:02;;;;;;;17.07;3.03;;;;;;;16.89;88.76;155657.94;4898920;29;20476;-74
2023/07/13 00:11:28;;;;;;;15.53;3.43;;;;;;;16.88;89.34;155655.34;4913773;29;20074;-75
2023/07/13 00:13:53;;;;;;;11.20;2.70;;;;;;;16.87;89.20;155652.69;4914955;29;20039;-75
2023/07/13 00:16:19;;;;;;;16.33;2.13;;;;;;;16.82;89.56;155638.41;4901726;29;20043;-75
2023/07/13 00:18:46;;;;;;;11.67;2.60;;;;;;;16.82;89.76;155639.69;4914889;29;20040;-74
2023/07/13 00:21:12;;;;;;;;;;;;;;;16.82;89.96;155638.41;4915603;29;20092;-73
2023/07/13 00:23:41;;;;;;;14.52;3.13;;;;;;;16.79;90.41;155630.56;4917288;29;19962;-75
2023/07/13 00:26:10;;;;;;;9.88;2.38;;;;;;;16.74;90.31;155618.88;4915570;29;20032;-75
2023/07/13 00:28:35;;;;;;;9.43;2.85;;;;;;;16.68;90.98;155603.28;4915562;29;20034;-74
2023/07/13 00:31:01;;;;;;;14.37;2.83;;;;;;;16.66;91.22;155598.06;4913586;29;20035;-74
2023/07/13 00:33:28;;;;;;;13.83;2.90;;;;;;;16.65;91.86;155594.19;4915476;29;20055;-75
2023/07/13 00:35:55;;;;;;;14.68;2.65;;;;;;;16.61;92.02;155585.09;4914207;29;20152;-75
2023/07/13 00:38:21;;;;;;;10.93;2.72;;;;;;;16.62;92.38;155586.34;4899212;29;20039;-74
2023/07/13 00:40:46;;;;;;;16.20;2.90;;;;;;;16.59;93.07;155578.59;4897429;29;20040;-75
2023/07/13 00:43:20;;;;;;;11.77;3.10;;;;;;;16.57;93.56;155574.66;4915723;29;20570;-74
2023/07/13 00:45:48;;;;;;;12.02;2.83;;;;;;;16.54;94.26;155565.56;4898304;29;20087;-75
2023/07/13 00:48:29;;;;;;;15.32;3.08;;;;;;;16.55;94.81;155569.44;4915555;29;20032;-74
2023/07/13 00:50:58;;;;;;;20.33;3.85;;;;;;;16.55;95.49;155568.16;4911662;29;20036;-74
2023/07/13 00:53:26;;;;;;;18.60;3.22;;;;;;;16.46;96.32;155544.72;4909540;29;20438;-73
2023/07/13 00:55:54;;;;;;;18.67;3.08;;;;;;;16.48;96.68;155551.25;4915210;29;20028;-74
2023/07/13 00:58:21;;;;;;;19.45;3.00;;;;;;;16.48;96.71;155549.97;4915232;29;20481;-74
2023/07/13 01:00:48;;;;;;;15.27;3.47;;;;;;;16.42;97.50;155534.31;4914127;29;20036;-75
2023/07/13 01:03:14;;;;;;;17.95;3.60;;;;;;;16.40;97.87;155529.13;4898488;29;20503;-75
2023/07/13 01:05:40;;;;;;;14.88;3.25;;;;;;;16.41;98.47;155531.72;4913955;29;20067;-75
2023/07/13 01:08:05;;;;;;;13.60;3.07;;;;;;;16.38;98.99;155523.91;4913845;29;20510;-75
2023/07/13 01:10:38;;;;;;;17.97;4.00;;;;;;;16.30;99.99;155504.41;4896388;29;20035;-74
2023/07/13 01:13:05;;;;;;;16.58;4.25;;;;;;;16.31;100.00;155505.66;4915253;29;20075;-75
2023/07/13 01:15:45;;;;;;;16.75;3.33;;;;;;;16.26;100.00;155493.97;4897710;29;20051;-75
2023/07/13 01:18:22;;;;;;;25.55;3.80;;;;;;;16.25;100.00;155490.06;4914085;29;20087;-74
2023/07/13 01:20:56;;;;;;;;;;;;;;;16.26;100.00;155493.97;4913018;29;20111;-74
2023/07/13 01:23:24;;;;;;;21.10;4.80;;;;;;;16.23;100.00;155484.88;4911652;29;20382;-74
2023/07/13 01:25:49;;;;;;;19.48;3.65;;;;;;;16.23;100.00;155484.88;4910878;29;20123;-75
2023/07/13 01:28:16;;;;;;;18.20;3.80;;;;;;;16.20;100.00;155478.38;4914920;29;20038;-74
2023/07/13 01:30:45;;;;;;;22.70;4.60;;;;;;;16.21;100.00;155479.66;4911891;29;20531;-75
2023/07/13 01:33:16;;;;;;;23.83;4.47;;;;;;;16.20;100.00;155478.38;4915837;29;20028;-75
2023/07/13 01:35:42;;;;;;;18.00;3.58;;;;;;;16.19;100.00;155475.78;4914004;29;20493;-75
2023/07/13 01:38:08;;;;;;;19.40;3.78;;;;;;;16.11;100.00;155453.69;4915765;29;20404;-75
2023/07/13 01:40:35;;;;;;;21.95;4.20;;;;;;;16.06;100.00;155441.94;4913768;29;20040;-75
2023/07/13 01:43:01;;;;;;;;;;;;;;;16.10;100.00;155451.03;4915634;29;20036;-75
2023/07/13 01:45:26;;;;;;;23.58;3.53;;;;;;;16.02;100.00;155430.25;4914453;29;19970;-76
2023/07/13 01:47:53;;;;;;;18.40;3.50;;;;;;;15.99;100.00;155422.44;4914783;29;20130;-76
2023/07/13 01:50:19;;;;;;;17.07;3.07;;;;;;;15.94;100.00;155409.44;4921200;29;20032;-75
2023/07/13 01:52:44;;;;;;;21.07;4.17;;;;;;;15.95;100.00;155413.34;4914388;29;20083;-75
2023/07/13 01:55:09;;;;;;;19.30;3.70;;;;;;;15.95;100.00;155413.34;4913881;29;20038;-75
2023/07/13 01:57:35;;;;;;;18.80;3.70;;;;;;;15.91;100.00;155401.66;4915485;29;20028;-75
2023/07/13 02:00:04;;;;;;;16.67;3.07;;;;;;;15.90;100.00;155400.34;4909197;29;20099;-75
2023/07/13 02:02:30;;;;;;;15.80;3.33;;;;;;;15.90;100.00;155399.06;4912832;29;20088;-75
2023/07/13 02:04:57;;;;;;;26.90;4.57;;;;;;;15.86;100.00;155389.94;4913497;29;20028;-74
2023/07/13 02:07:22;;;;;;;26.15;4.75;;;;;;;15.89;100.00;155396.44;4912521;29;20060;-75
2023/07/13 02:09:49;;;;;;;24.00;4.23;;;;;;;15.89;100.00;155396.44;4910743;29;20032;-75
2023/07/13 02:12:14;;;;;;;18.35;4.45;;;;;;;15.90;100.00;155400.34;4915341;29;20040;-75
2023/07/13 02:14:40;;;;;;;18.67;4.73;;;;;;;15.80;100.00;155373.06;4912189;29;20056;-75
2023/07/13 02:17:06;;;;;;;20.83;4.77;;;;;;;15.82;100.00;155379.56;4912440;29;20039;-76
2023/07/13 02:19:32;;;;;;;18.40;4.70;;;;;;;15.78;100.00;155367.84;4911092;29;20103;-74
2023/07/13 02:21:57;;;;;;;27.42;4.53;;;;;;;15.76;100.00;155363.97;4899113;29;20058;-74
2023/07/13 02:24:23;;;;;;;19.10;4.40;;;;;;;15.71;100.00;155349.66;4915902;29;20181;-75
2023/07/13 02:26:49;;;;;;;20.23;3.73;;;;;;;15.73;100.00;155356.16;4917044;29;20378;-74
2023/07/13 02:29:15;;;;;;;20.40;5.32;;;;;;;15.72;100.00;155352.25;4918345;29;20035;-74
2023/07/13 02:31:41;;;;;;;17.13;4.57;;;;;;;15.69;100.00;155345.75;4920893;29;20195;-74
2023/07/13 02:34:06;;;;;;;32.07;6.80;;;;;;;15.76;100.00;155362.66;4917211;29;20035;-74
2023/07/13 02:36:32;;;;;;;30.17;5.63;;;;;;;15.71;100.00;155350.97;4913343;29;20032;-74
2023/07/13 02:39:02;;;;;;;35.77;5.67;;;;;;;15.71;100.00;155350.97;4915750;29;20032;-75
2023/07/13 02:41:28;;;;;;;20.92;4.97;;;;;;;15.69;100.00;155344.47;4914117;29;20283;-75
2023/07/13 02:43:53;;;;;;;29.80;5.50;;;;;;;15.67;100.00;155340.56;4916247;29;20389;-75
2023/07/13 02:46:19;;;;;;;35.73;6.10;;;;;;;15.69;100.00;155345.75;4914700;29;20046;-74
2023/07/13 02:48:45;;;;;;;25.53;5.53;;;;;;;15.67;100.00;155340.56;4915726;29;20080;-74
2023/07/13 02:51:11;;;;;;;31.50;4.37;;;;;;;15.66;100.00;155337.97;4913404;29;20437;-74
2023/07/13 02:53:37;;;;;;;25.33;5.23;;;;;;;15.70;100.00;155348.34;4915412;29;20052;-74
2023/07/13 02:56:05;;;;;;;21.75;5.28;;;;;;;15.66;100.00;155336.66;4916846;29;20035;-73
2023/07/13 02:58:30;;;;;;;29.77;5.43;;;;;;;15.66;100.00;155336.66;4914851;29;20120;-74
2023/07/13 03:00:57;;;;;;;28.80;5.17;;;;;;;15.61;100.00;155324.97;4915961;29;20532;-74
2023/07/13 03:03:23;;;;;;;20.92;5.28;;;;;;;15.66;100.00;155336.66;4916327;29;20032;-75
2023/07/13 03:05:59;;;;;;;35.33;5.60;;;;;;;15.64;100.00;155331.47;4916988;29;20028;-76
2023/07/13 03:08:25;;;;;;;28.77;5.72;;;;;;;15.57;100.00;155313.25;4914864;29;20032;-74
2023/07/13 03:11:08;;;;;;;20.90;4.95;;;;;;;15.57;100.00;155314.56;4898735;29;20511;-75
2023/07/13 03:13:33;;;;;;;29.85;5.60;;;;;;;15.62;100.00;155326.25;4915421;29;20063;-74
2023/07/13 03:15:59;;;;;;;21.33;4.97;;;;;;;15.58;100.00;155315.88;4915234;29;20492;-74
2023/07/13 03:18:26;;;;;;;21.73;5.53;;;;;;;15.62;100.00;155327.56;4911661;29;20036;-74
2023/07/13 03:20:52;;;;;;;25.35;5.55;;;;;;;15.62;100.00;155327.56;4914952;29;20032;-74
2023/07/13 03:23:18;;;;;;;23.95;5.68;;;;;;;15.57;100.00;155314.56;4915641;29;20522;-73
2023/07/13 03:25:44;;;;;;;34.67;6.18;;;;;;;15.60;100.00;155321.06;4914167;29;20040;-74
2023/07/13 03:28:11;;;;;;;24.90;5.60;;;;;;;15.62;100.00;155327.56;4899094;29;20047;-74
2023/07/13 03:30:37;;;;;;;23.45;5.15;;;;;;;15.57;100.00;155314.56;4890151;29;20052;-74
2023/07/13 03:33:05;;;;;;;23.53;5.43;;;;;;;15.55;100.00;155308.06;4904478;29;20038;-74
2023/07/13 03:35:32;;;;;;;22.63;5.60;;;;;;;15.58;100.00;155315.88;4915736;29;20036;-73
2023/07/13 03:37:58;;;;;;;24.02;5.82;;;;;;;15.61;100.00;155324.97;4916132;29;20158;-75
2023/07/13 03:40:25;;;;;;;28.25;5.25;;;;;;;15.58;100.00;155315.88;4896133;29;20048;-74
2023/07/13 03:42:51;;;;;;;;;;;;;;;15.58;100.00;155315.88;4916025;29;20028;-74
2023/07/13 03:45:16;;;;;;;35.22;7.90;;;;;;;15.63;100.00;155328.88;4915902;29;19982;-73
2023/07/13 03:47:42;;;;;;;29.83;5.87;;;;;;;15.63;100.00;155330.16;4914544;29;20060;-74
2023/07/13 03:50:07;;;;;;;23.80;6.30;;;;;;;15.66;100.00;155336.66;4914181;29;20035;-73
2023/07/13 03:52:33;;;;;;;31.70;5.90;;;;;;;15.75;100.00;155360.06;4897367;29;20460;-75
2023/07/13 03:54:59;;;;;;;30.80;6.40;;;;;;;15.78;100.00;155369.16;4915312;29;20047;-74
2023/07/13 03:57:27;;;;;;;32.75;6.25;;;;;;;15.87;100.00;155392.56;4915446;29;20492;-73
2023/07/13 03:59:53;;;;;;;31.40;6.30;;;;;;;15.92;100.00;155404.25;4889351;29;20604;-74
2023/07/13 04:02:18;;;;;;;27.63;6.00;;;;;;;15.90;100.00;155399.06;4913955;29;20107;-74
2023/07/13 04:04:44;;;;;;;26.67;5.73;;;;;;;15.86;100.00;155388.66;4902543;29;20048;-73
2023/07/13 04:07:10;;;;;;;31.10;6.43;;;;;;;15.86;100.00;155388.66;4914575;29;20111;-74
2023/07/13 04:09:36;;;;;;;29.98;6.40;;;;;;;15.93;100.00;155406.84;4882719;29;20036;-74
2023/07/13 04:12:02;;;;;;;27.57;7.30;;;;;;;15.92;100.00;155405.56;4896242;29;20087;-74
2023/07/13 04:14:27;;;;;;;33.77;7.90;;;;;;;15.96;100.00;155415.94;4914183;29;20117;-74
2023/07/13 04:16:56;;;;;;;37.53;6.73;;;;;;;15.97;100.00;155418.59;4914080;29;20055;-74
2023/07/13 04:19:21;;;;;;;39.88;6.60;;;;;;;15.94;100.00;155410.75;4912429;29;20034;-74
2023/07/13 04:21:47;;;;;;;27.70;6.47;;;;;;;15.93;100.00;155406.84;4910104;29;20399;-73
2023/07/13 04:24:14;;;;;;;34.67;9.00;;;;;;;15.97;100.00;155418.59;4910669;29;20091;-74
2023/07/13 04:26:39;;;;;;;;;;;;;;;15.98;100.00;155421.16;4912079;29;20031;-73
2023/07/13 04:29:06;;;;;;;33.25;6.05;;;;;;;16.02;100.00;155431.53;4914140;29;19919;-73
2023/07/13 04:31:34;;;;;;;30.50;7.00;;;;;;;16.07;100.00;155443.28;4910768;29;20488;-73
2023/07/13 04:33:59;;;;;;;33.63;6.63;;;;;;;16.16;100.00;155466.69;4897602;29;20032;-73
2023/07/13 04:36:27;;;;;;;32.60;7.03;;;;;;;16.18;100.00;155471.88;4897965;29;20119;-74
2023/07/13 04:38:56;;;;;;;40.63;8.93;;;;;;;16.23;100.00;155486.16;4914968;29;20526;-73
2023/07/13 04:41:21;;;;;;;25.38;6.43;;;;;;;16.36;100.00;155518.66;4913811;29;20047;-72
2023/07/13 04:43:47;;;;;;;33.83;8.57;;;;;;;16.52;100.00;155560.34;4912008;29;20036;-73
2023/07/13 04:46:19;;;;;;;32.03;8.73;;;;;;;16.55;100.00;155569.44;4880941;29;20032;-73
2023/07/13 04:48:46;;;;;;;29.10;7.68;;;;;;;16.66;100.00;155598.06;4914044;29;20024;-74
2023/07/13 04:51:12;;;;;;;29.70;7.43;;;;;;;16.72;100.00;155613.69;4895662;29;20031;-74
2023/07/13 04:53:41;;;;;;;34.63;7.93;;;;;;;16.74;100.00;155618.88;4913070;29;20043;-73
2023/07/13 04:56:07;;;;;;;30.42;6.68;;;;;;;16.75;100.00;155621.47;4896368;29;20032;-73
2023/07/13 04:58:33;;;;;;;36.30;7.03;;;;;;;16.73;100.00;155614.97;4896641;29;20200;-74
2023/07/13 05:01:04;;;;;;;30.13;7.97;;;;;;;16.75;100.00;155621.47;4912367;29;20059;-74
2023/07/13 05:03:29;;;;;;;28.05;6.90;;;;;;;16.68;100.00;155603.28;4908514;29;20406;-74
2023/07/13 05:06:00;;;;;;;31.60;7.20;;;;;;;16.70;100.00;155607.19;4911537;29;20083;-74
2023/07/13 05:08:26;;;;;;;33.85;7.75;;;;;;;16.70;100.00;155608.47;4912398;29;21912;-73
2023/07/13 05:10:52;;;;;;;30.73;7.07;;;;;;;16.76;100.00;155622.81;4893999;29;20119;-74
2023/07/13 05:13:17;;;;;;;40.20;8.17;;;;;;;16.88;100.00;155654.00;4910199;29;20067;-73
2023/07/13 05:15:43;;;;;;;42.17;8.93;;;;;;;16.99;100.00;155683.94;4893292;29;20059;-73
2023/07/13 05:18:08;;;;;;;28.83;7.03;;;;;;;16.98;100.00;155681.31;4896238;29;20107;-73
2023/07/13 05:20:34;;;;;;;33.57;7.73;;;;;;;16.93;100.00;155668.34;4884372;29;20060;-74
2023/07/13 05:23:00;;;;;;;36.30;8.23;;;;;;;16.93;100.00;155667.03;4895281;29;20035;-74
2023/07/13 05:25:28;;;;;;;30.07;7.93;;;;;;;16.84;100.00;155644.91;4907377;29;20064;-73
2023/07/13 05:27:53;;;;;;;30.73;8.43;;;;;;;16.92;100.00;155664.44;4894994;29;20040;-74
2023/07/13 05:30:19;;;;;;;35.53;9.13;;;;;;;16.95;100.00;155672.22;4913467;29;20036;-73
2023/07/13 05:32:45;;;;;;;38.03;7.77;;;;;;;17.02;100.00;155690.47;4913294;29;20036;-74
2023/07/13 05:35:11;;;;;;;32.90;8.20;;;;;;;17.82;100.00;155900.03;4911394;29;20036;-73
2023/07/13 05:37:38;;;;;;;36.53;7.37;;;;;;;18.38;100.00;156045.97;4912534;29;20090;-74
2023/07/13 05:40:03;;;;;;;30.70;8.68;;;;;;;19.42;98.63;156317.03;4906436;29;20151;-74
2023/07/13 05:42:31;;;;;;;30.63;7.33;;;;;;;20.33;93.52;156553.13;4913640;29;20078;-74
2023/07/13 05:44:56;;;;;;;25.00;7.00;;;;;;;20.75;89.88;156662.72;4911544;29;20652;-75
2023/07/13 05:47:22;;;;;;;30.03;7.27;;;;;;;20.84;88.52;156686.19;4913893;29;20066;-74
2023/07/13 05:49:47;;;;;;;25.10;6.27;;;;;;;20.55;87.71;156611.78;4910685;29;20035;-74
2023/07/13 05:52:12;;;;;;;29.83;7.63;;;;;;;19.63;90.46;156371.78;4911273;29;20496;-75
2023/07/13 05:54:38;;;;;;;33.57;7.77;;;;;;;19.41;92.14;156313.09;4914223;29;20035;-73
2023/07/13 05:57:03;;;;;;;27.27;8.20;;;;;;;19.08;93.70;156227.03;4915247;29;20032;-74
2023/07/13 05:59:29;;;;;;;31.17;8.20;;;;;;;18.76;96.69;156143.63;4916804;29;20040;-73
2023/07/13 06:01:54;;;;;;;29.70;7.60;;;;;;;18.54;97.64;156086.31;4918737;29;20433;-75
2023/07/13 06:04:20;;;;;;;25.13;8.17;;;;;;;18.38;99.08;156045.97;4917455;29;20119;-74
2023/07/13 06:06:45;;;;;;;29.03;8.23;;;;;;;18.31;99.65;156026.38;4917942;29;20063;-73
2023/07/13 06:09:11;;;;;;;35.33;9.07;;;;;;;18.18;100.00;155992.47;4917978;29;20040;-74
2023/07/13 06:11:36;;;;;;;34.00;10.60;;;;;;;18.22;100.00;156002.91;4915735;29;20027;-73
2023/07/13 06:14:02;;;;;;;37.10;9.87;;;;;;;18.18;100.00;155993.81;4915059;29;20181;-73
2023/07/13 06:16:27;;;;;;;39.03;9.13;;;;;;;18.07;100.00;155965.16;4916814;29;20091;-73
2023/07/13 06:18:53;;;;;;;41.60;10.47;;;;;;;18.02;100.00;155952.13;4912350;29;20456;-74
2023/07/13 06:21:21;;;;;;;32.50;8.90;;;;;;;17.99;100.00;155943.03;4913512;29;20031;-74
2023/07/13 06:23:48;;;;;;;21.70;8.65;;;;;;;17.89;100.00;155916.97;4911991;29;20087;-73
2023/07/13 06:26:14;;;;;;;36.25;9.45;;;;;;;17.77;100.00;155887.00;4910994;29;20025;-74
2023/07/13 06:28:40;;;;;;;37.40;9.47;;;;;;;17.77;100.00;155885.75;4914050;29;20130;-74
2023/07/13 06:31:07;;;;;;;27.37;8.37;;;;;;;18.05;100.00;155958.66;4916272;29;20279;-74
2023/07/13 06:33:33;;;;;;;24.10;8.20;;;;;;;18.30;100.00;156025.03;4896561;29;20032;-75
2023/07/13 06:35:59;;;;;;;28.52;8.07;;;;;;;18.51;100.00;156078.53;4913199;29;20032;-74
2023/07/13 06:38:24;;;;;;;32.33;8.57;;;;;;;18.44;99.83;156060.25;4900666;29;20475;-75
2023/07/13 06:40:49;;;;;;;28.47;8.70;;;;;;;18.47;99.73;156069.38;4914732;29;20040;-74
2023/07/13 06:43:15;;;;;;;31.97;8.43;;;;;;;18.54;99.32;156087.66;4917597;29;20036;-74
2023/07/13 06:45:45;;;;;;;35.57;7.90;;;;;;;18.41;98.80;156053.75;4915647;29;20028;-73
2023/07/13 06:48:11;;;;;;;25.98;7.25;;;;;;;18.67;99.40;156121.50;4913374;29;20047;-75
2023/07/13 06:50:36;;;;;;;26.03;7.03;;;;;;;20.07;94.08;156485.31;4895688;29;20032;-74
2023/07/13 06:53:02;;;;;;;32.40;7.70;;;;;;;20.93;87.98;156709.75;4913227;29;20028;-74
2023/07/13 06:55:27;;;;;;;27.87;6.53;;;;;;;21.01;84.85;156730.59;4907395;29;20466;-75
2023/07/13 06:57:52;;;;;;;24.53;5.93;;;;;;;20.45;85.61;156585.75;4894358;29;20024;-73
2023/07/13 07:00:18;;;;;;;18.17;5.00;;;;;;;20.81;85.60;156678.38;4898436;29;20064;-72
2023/07/13 07:02:44;;;;;;;18.50;5.40;;;;;;;21.07;84.45;156746.31;4917282;29;20046;-74
2023/07/13 07:05:10;;;;;;;18.13;5.10;;;;;;;21.99;78.80;156986.56;4912069;29;20016;-74
2023/07/13 07:07:35;;;;;;;31.83;5.07;;;;;;;22.53;76.21;157127.69;4916059;29;20126;-75
2023/07/13 07:10:01;;;;;;;23.07;5.33;;;;;;;22.24;75.52;157051.91;4917053;29;20032;-74
2023/07/13 07:12:26;;;;;;;17.07;4.80;;;;;;;22.01;76.79;156991.78;4897250;29;20028;-74
2023/07/13 07:14:52;;;;;;;18.30;4.60;;;;;;;22.67;75.20;157165.56;4914061;29;20032;-74
2023/07/13 07:17:17;;;;;;;21.97;4.57;;;;;;;22.29;72.92;157064.91;4916675;29;20041;-75
2023/07/13 07:19:43;;;;;;;18.57;3.97;;;;;;;22.70;71.34;157172.09;4912262;29;20111;-74
2023/07/13 07:22:08;;;;;;;15.13;3.63;;;;;;;21.97;74.30;156981.31;4911955;29;20044;-74
2023/07/13 07:24:33;;;;;;;22.43;3.53;;;;;;;21.71;72.35;156913.44;4911674;29;20409;-74
2023/07/13 07:26:59;;;;;;;14.07;4.20;;;;;;;21.15;73.89;156767.16;4899052;29;20028;-74
2023/07/13 07:29:26;;;;;;;14.73;4.23;;;;;;;20.74;76.85;156660.06;4898331;29;20520;-74
2023/07/13 07:31:52;;;;;;;21.27;4.18;;;;;;;20.72;78.67;156656.19;4897722;29;20032;-76
2023/07/13 07:34:17;;;;;;;15.68;3.63;;;;;;;20.55;80.28;156611.78;4908004;29;20028;-73
2023/07/13 07:36:43;;;;;;;18.80;4.80;;;;;;;20.16;83.42;156510.06;4913207;29;20036;-74
2023/07/13 07:39:08;;;;;;;18.33;4.63;;;;;;;20.01;85.53;156470.88;4898421;29;20516;-74
2023/07/13 07:41:33;;;;;;;19.67;4.73;;;;;;;19.91;87.75;156444.78;4916014;29;20507;-73
2023/07/13 07:43:59;;;;;;;23.97;4.67;;;;;;;19.99;88.69;156464.34;4910166;29;20031;-75
2023/07/13 07:46:24;;;;;;;24.47;5.07;;;;;;;19.87;88.39;156433.06;4914111;29;20024;-74
2023/07/13 07:48:49;;;;;;;24.63;4.93;;;;;;;19.82;89.72;156420.03;4912247;29;20309;-75
2023/07/13 07:51:15;;;;;;;19.33;5.00;;;;;;;19.73;90.57;156396.53;4915932;29;20785;-75
2023/07/13 07:53:40;;;;;;;19.47;4.53;;;;;;;19.64;90.45;156373.09;4910146;29;20059;-75
2023/07/13 07:56:06;;;;;;;16.30;4.83;;;;;;;19.77;91.65;156408.31;4910624;29;20036;-75
2023/07/13 07:58:31;;;;;;;14.87;5.00;;;;;;;20.24;89.44;156530.97;4894721;29;20404;-75
2023/07/13 08:01:06;;;;;;;13.87;3.73;;;;;;;19.90;90.13;156442.19;4898506;29;20067;-75
2023/07/13 08:03:32;;;;;;;11.23;3.42;;;;;;;19.59;89.76;156360.06;4908544;29;20039;-75
2023/07/13 08:05:57;;;;;;;16.65;3.50;;;;;;;19.38;89.91;156305.31;4914938;29;20040;-75
2023/07/13 08:08:24;;;;;;;11.63;3.47;;;;;;;19.52;90.09;156341.84;4895337;29;20024;-74
2023/07/13 08:10:49;;;;;;;12.55;3.83;;;;;;;20.34;88.54;156555.72;4911610;29;20118;-74
2023/07/13 08:13:15;;;;;;;16.33;3.97;;;;;;;20.82;86.79;156680.97;4915471;29;20524;-74
2023/07/13 08:15:40;;;;;;;14.30;4.43;;;;;;;21.10;86.63;156754.09;4909430;29;20024;-73
2023/07/13 08:18:07;;;;;;;10.93;3.93;;;;;;;21.89;85.19;156960.44;4908011;29;20028;-74
2023/07/13 08:20:33;;;;;;;12.32;4.18;;;;;;;21.88;84.20;156957.84;4906578;29;20036;-74
2023/07/13 08:22:58;;;;;;;21.52;4.97;;;;;;;21.37;82.82;156824.59;4897782;29;20023;-75
2023/07/13 08:25:24;;;;;;;16.70;4.17;;;;;;;20.86;84.90;156691.44;4903767;29;20064;-74
2023/07/13 08:27:49;;;;;;;16.63;4.03;;;;;;;20.53;87.60;156606.59;4914469;29;20127;-75
2023/07/13 08:30:15;;;;;;;19.20;4.47;;;;;;;20.47;88.70;156589.63;4914267;29;20047;-74
2023/07/13 08:32:40;;;;;;;16.10;3.63;;;;;;;20.24;87.99;156530.97;4913983;29;20028;-74
2023/07/13 08:35:06;;;;;;;18.73;4.70;;;;;;;20.23;89.79;156528.31;4911412;29;20032;-74
2023/07/13 08:37:32;;;;;;;17.77;4.63;;;;;;;20.21;92.12;156521.78;4913373;29;20063;-74
2023/07/13 08:39:57;;;;;;;12.27;3.77;;;;;;;20.03;91.62;156476.13;4910915;29;20056;-75
2023/07/13 08:42:33;;;;;;;17.73;4.10;;;;;;;20.11;91.24;156497.03;4910132;29;20027;-73
2023/07/13 08:45:31;;;;;;;20.15;4.97;;;;;;;20.18;90.41;156515.25;4906786;29;20028;-74
2023/07/13 08:48:05;;;;;;;13.82;4.45;;;;;;;20.19;89.09;156517.91;4909865;29;20028;-75
2023/07/13 08:50:42;;;;;;;15.52;4.00;;;;;;;20.17;90.97;156512.66;4914086;29;20036;-75
2023/07/13 08:53:11;;;;;;;15.90;4.45;;;;;;;19.99;92.03;156464.34;4910725;29;20403;-75
2023/07/13 08:55:38;;;;;;;19.88;4.80;;;;;;;19.85;92.58;156427.88;4911730;29;20035;-75
2023/07/13 08:58:14;;;;;;;12.98;4.10;;;;;;;19.73;92.83;156396.53;4914710;29;20032;-75
2023/07/13 09:01:06;;;;;;;14.88;3.92;;;;;;;19.60;91.07;156362.66;4913154;29;20024;-75
2023/07/13 09:03:40;;;;;;;13.98;3.78;;;;;;;19.73;91.77;156396.53;4911567;29;20028;-75
2023/07/13 09:06:12;;;;;;;16.88;3.85;;;;;;;20.52;89.02;156602.69;4913196;29;20032;-74
2023/07/13 09:09:03;;;;;;;15.32;3.95;;;;;;;20.81;85.83;156679.66;4911674;29;20114;-74
2023/07/13 09:11:55;;;;;;;10.20;2.85;;;;;;;20.53;83.90;156605.28;4906552;29;20079;-74
2023/07/13 09:14:34;;;;;;;8.45;3.05;;;;;;;20.36;84.68;156562.25;4913591;29;20488;-77
2023/07/13 09:17:05;;;;;;;13.40;3.38;;;;;;;20.40;84.99;156571.38;4909070;29;20037;-75
2023/07/13 09:19:35;;;;;;;14.07;4.00;;;;;;;20.25;85.22;156532.22;4914877;29;20111;-75
2023/07/13 09:22:04;;;;;;;6.82;3.15;;;;;;;20.41;85.37;156573.97;4915306;29;20028;-74
2023/07/13 09:24:50;;;;;;;13.40;4.05;;;;;;;20.30;80.24;156546.59;4912474;29;20501;-74
2023/07/13 09:27:21;;;;;;;7.78;2.58;;;;;;;20.12;79.23;156498.34;4911382;29;20024;-74
2023/07/13 09:29:57;;;;;;;9.15;2.95;;;;;;;20.69;78.82;156647.03;4913069;29;20032;-74
2023/07/13 09:32:26;;;;;;;10.95;3.65;;;;;;;21.52;76.23;156865.09;4914453;29;20028;-74
2023/07/13 09:40:04;;;;;;;10.55;3.08;;;;;;;22.28;67.14;157062.31;5212087;23;20063;-74
2023/07/13 09:42:33;;;;;;;6.50;2.35;;;;;;;22.93;67.35;157232.22;4944377;29;20039;-74
2023/07/13 09:45:02;;;;;;;6.50;2.20;;;;;;;22.93;61.03;157232.22;4952224;29;20031;-74
2023/07/13 09:47:30;;;;;;;9.75;3.05;;;;;;;22.14;62.33;157027.03;4949762;29;20055;-74
2023/07/13 09:50:01;;;;;;;7.13;2.75;;;;;;;23.01;62.46;157254.47;4951329;29;20507;-73
2023/07/13 09:52:38;;;;;;;8.75;2.10;;;;;;;23.27;61.62;157321.19;4944699;29;21518;-73
2023/07/13 09:55:04;;;;;;;8.15;2.47;;;;;;;23.70;60.31;157433.63;4934045;29;20035;-74
2023/07/13 09:57:29;;;;;;;4.47;1.85;;;;;;;23.90;60.99;157485.97;4947970;29;20480;-74
2023/07/13 09:59:59;;;;;;;9.43;3.10;;;;;;;23.34;60.39;157339.47;4932291;29;20105;-73
2023/07/13 10:02:33;;;;;;;4.82;2.20;;;;;;;23.13;59.95;157284.50;4950312;29;20027;-74
2023/07/13 10:05:14;;;;;;;7.97;2.30;;;;;;;23.74;59.43;157445.38;4948145;29;20035;-74
2023/07/13 10:07:44;;;;;;;12.02;2.92;;;;;;;23.56;59.80;157396.97;4943531;29;20429;-74
2023/07/13 10:10:17;;;;;;;8.30;2.65;;;;;;;24.46;59.24;157632.47;4949884;29;20488;-74
2023/07/13 10:12:43;;;;;;;5.75;2.42;;;;;;;24.42;57.94;157622.00;4952053;29;20065;-74
2023/07/13 10:15:17;;;;;;;10.43;3.00;;;;;;;24.86;57.76;157738.50;4933835;29;20035;-74
2023/07/13 10:17:44;;;;;;;9.88;2.97;;;;;;;24.73;54.12;157703.16;4934359;29;20411;-75
2023/07/13 10:20:12;;;;;;;7.80;2.47;;;;;;;24.86;55.28;157737.22;4947344;29;20162;-74
2023/07/13 10:23:01;;;;;;;7.47;2.35;;;;;;;24.49;51.80;157640.34;4933803;29;20027;-74
2023/07/13 10:25:32;;;;;;;10.23;2.42;;;;;;;24.47;52.71;157636.41;4949980;29;20058;-74
2023/07/13 10:28:28;;;;;;;10.70;2.50;;;;;;;23.77;53.87;157453.22;4946975;28;20503;-75
2023/07/13 10:30:58;;;;;;;3.88;2.38;;;;;;;23.56;53.91;157398.31;4931745;29;20069;-74
2023/07/13 10:33:24;;;;;;;4.28;2.08;;;;;;;23.70;53.23;157433.63;4934848;29;20546;-74
2023/07/13 10:35:55;;;;;;;11.30;2.50;;;;;;;23.57;52.89;157400.91;4952824;29;20035;-74
2023/07/13 10:38:23;;;;;;;9.02;2.28;;;;;;;24.28;52.43;157585.38;4946515;28;20281;-74
2023/07/13 10:41:09;;;;;;;8.32;2.13;;;;;;;24.50;52.33;157642.94;4953372;28;20051;-75
2023/07/13 10:43:51;;;;;;;7.38;2.65;;;;;;;24.59;51.49;157667.84;4952869;29;20031;-74
2023/07/13 10:46:20;;;;;;;7.05;2.05;;;;;;;24.31;50.21;157593.22;4946452;29;20166;-75
2023/07/13 10:48:51;;;;;;;6.95;2.20;;;;;;;24.67;50.12;157687.47;4950978;29;20058;-74
2023/07/13 10:51:21;;;;;;;4.18;2.20;;;;;;;24.35;51.26;157603.69;4936381;29;20039;-73
2023/07/13 10:53:46;;;;;;;6.13;2.13;;;;;;;24.75;52.66;157709.72;4953345;29;20023;-73
2023/07/13 10:56:21;;;;;;;7.82;2.05;;;;;;;24.50;51.39;157644.22;4935610;29;20483;-74
2023/07/13 10:58:47;;;;;;;10.68;2.20;;;;;;;24.65;50.35;157682.25;4951865;29;20030;-74
2023/07/13 11:01:15;;;;;;;4.70;2.03;;;;;;;24.38;49.92;157612.84;4954867;29;20098;-73
2023/07/13 11:03:43;;;;;;;6.13;2.10;;;;;;;24.18;49.97;157560.50;4953890;29;20039;-73
2023/07/13 11:06:15;;;;;;;2.97;1.85;;;;;;;24.48;49.71;157639.00;4953198;29;20591;-73
2023/07/13 11:08:55;;;;;;;5.25;1.95;;;;;;;24.29;50.42;157588.00;4955317;28;20027;-73
2023/07/13 11:11:23;;;;;;;6.18;2.42;;;;;;;24.36;49.89;157607.63;4955765;29;20329;-74
2023/07/13 11:13:52;;;;;;;3.97;1.83;;;;;;;24.41;48.76;157619.38;4937902;29;20502;-73
2023/07/13 11:16:18;;;;;;;4.30;1.75;;;;;;;24.68;48.91;157691.41;4954140;29;20173;-73
2023/07/13 11:18:51;;;;;;;5.20;1.83;;;;;;;24.80;48.04;157722.81;4930808;29;20059;-74
2023/07/13 11:21:27;;;;;;;4.45;2.25;;;;;;;25.01;48.33;157776.44;4932314;29;20170;-73
2023/07/13 11:24:02;;;;;;;8.45;2.25;;;;;;;25.07;49.49;157792.19;4929452;29;20031;-73
2023/07/13 11:26:45;;;;;;;13.30;2.47;;;;;;;25.21;50.41;157830.16;4950540;29;20043;-73